sensor_id;sensor_type;location;lat;lon;timestamp;P1;durP1;ratioP1;P2;durP2;ratioP2
49812;SDS011;35706;52.100;5.056;2022-12-29T00:00:11;0.85;;;0.50;;
49812;SDS011;35706;52.100;5.056;2022-12-29T00:01:12;1.00;;;0.60;;
49812;SDS011;35706;52.100;5.056;2022-12-29T00:02:12;1.00;;;0.50;;
49812;SDS011;35706;52.100;5.056;2022-12-29T00:03:14;2.20;;;0.50;;
49812;SDS011;35706;52.100;5.056;2022-12-29T00:04:14;2.72;;;0.50;;
49812;SDS011;35706;52.100;5.056;2022-12-29T00:05:15;3.47;;;0.60;;
49812;SDS011;35706;52.100;5.056;2022-12-29T00:06:15;1.02;;;0.50;;
49812;SDS011;35706;52.100;5.056;2022-12-29T00:07:15;1.45;;;0.40;;
49812;SDS011;35706;52.100;5.056;2022-12-29T00:08:16;1.67;;;0.40;;
49812;SDS011;35706;52.100;5.056;2022-12-29T00:09:17;1.13;;;0.40;;
49812;SDS011;35706;52.100;5.056;2022-12-29T00:10:17;0.85;;;0.50;;
49812;SDS011;35706;52.100;5.056;2022-12-29T00:11:21;1.50;;;0.40;;
49812;SDS011;35706;52.100;5.056;2022-12-29T00:12:23;1.20;;;0.40;;
49812;SDS011;35706;52.100;5.056;2022-12-29T00:13:23;0.80;;;0.40;;
49812;SDS011;35706;52.100;5.056;2022-12-29T00:14:42;2.03;;;0.40;;
49812;SDS011;35706;52.100;5.056;2022-12-29T00:16:01;0.80;;;0.40;;
49812;SDS011;35706;52.100;5.056;2022-12-29T00:17:01;1.98;;;0.40;;
49812;SDS011;35706;52.100;5.056;2022-12-29T00:18:02;0.93;;;0.40;;
49812;SDS011;35706;52.100;5.056;2022-12-29T00:19:03;2.45;;;0.50;;
49812;SDS011;35706;52.100;5.056;2022-12-29T00:20:04;1.05;;;0.40;;
49812;SDS011;35706;52.100;5.056;2022-12-29T00:21:23;0.85;;;0.40;;
49812;SDS011;35706;52.100;5.056;2022-12-29T00:22:53;0.63;;;0.35;;
49812;SDS011;35706;52.100;5.056;2022-12-29T00:24:17;1.90;;;0.40;;
49812;SDS011;35706;52.100;5.056;2022-12-29T00:25:40;1.00;;;0.40;;
49812;SDS011;35706;52.100;5.056;2022-12-29T00:28:21;0.70;;;0.40;;
49812;SDS011;35706;52.100;5.056;2022-12-29T00:29:40;1.60;;;0.40;;
49812;SDS011;35706;52.100;5.056;2022-12-29T00:30:59;0.70;;;0.52;;
49812;SDS011;35706;52.100;5.056;2022-12-29T00:32:18;0.63;;;0.30;;
49812;SDS011;35706;52.100;5.056;2022-12-29T00:33:37;0.98;;;0.35;;
49812;SDS011;35706;52.100;5.056;2022-12-29T00:34:56;1.67;;;0.40;;
49812;SDS011;35706;52.100;5.056;2022-12-29T00:36:18;0.60;;;0.40;;
49812;SDS011;35706;52.100;5.056;2022-12-29T00:37:20;3.50;;;0.40;;
49812;SDS011;35706;52.100;5.056;2022-12-29T00:38:41;0.60;;;0.40;;
49812;SDS011;35706;52.100;5.056;2022-12-29T00:40:07;1.38;;;0.40;;
49812;SDS011;35706;52.100;5.056;2022-12-29T00:41:27;0.90;;;0.32;;
49812;SDS011;35706;52.100;5.056;2022-12-29T00:42:46;1.67;;;0.30;;
49812;SDS011;35706;52.100;5.056;2022-12-29T00:44:05;0.70;;;0.38;;
49812;SDS011;35706;52.100;5.056;2022-12-29T00:45:06;2.85;;;0.40;;
49812;SDS011;35706;52.100;5.056;2022-12-29T00:46:07;1.02;;;0.30;;
49812;SDS011;35706;52.100;5.056;2022-12-29T00:47:07;0.60;;;0.30;;
49812;SDS011;35706;52.100;5.056;2022-12-29T00:48:07;1.02;;;0.30;;
49812;SDS011;35706;52.100;5.056;2022-12-29T00:49:09;0.70;;;0.30;;
49812;SDS011;35706;52.100;5.056;2022-12-29T00:50:30;0.85;;;0.25;;
49812;SDS011;35706;52.100;5.056;2022-12-29T00:51:30;1.40;;;0.40;;
49812;SDS011;35706;52.100;5.056;2022-12-29T00:52:30;1.85;;;0.30;;
49812;SDS011;35706;52.100;5.056;2022-12-29T00:53:30;1.38;;;0.30;;
49812;SDS011;35706;52.100;5.056;2022-12-29T00:54:32;1.17;;;0.28;;
49812;SDS011;35706;52.100;5.056;2022-12-29T00:55:36;0.70;;;0.30;;
49812;SDS011;35706;52.100;5.056;2022-12-29T00:56:37;0.50;;;0.30;;
49812;SDS011;35706;52.100;5.056;2022-12-29T00:57:37;0.60;;;0.20;;
49812;SDS011;35706;52.100;5.056;2022-12-29T00:58:37;1.27;;;0.20;;
49812;SDS011;35706;52.100;5.056;2022-12-29T00:59:38;0.95;;;0.20;;
49812;SDS011;35706;52.100;5.056;2022-12-29T01:00:40;0.75;;;0.28;;
49812;SDS011;35706;52.100;5.056;2022-12-29T01:01:40;0.40;;;0.20;;
49812;SDS011;35706;52.100;5.056;2022-12-29T01:02:41;0.70;;;0.20;;
49812;SDS011;35706;52.100;5.056;2022-12-29T01:03:41;3.33;;;0.30;;
49812;SDS011;35706;52.100;5.056;2022-12-29T01:04:41;2.17;;;0.20;;
49812;SDS011;35706;52.100;5.056;2022-12-29T01:05:42;1.52;;;0.25;;
49812;SDS011;35706;52.100;5.056;2022-12-29T01:06:42;0.80;;;0.30;;
49812;SDS011;35706;52.100;5.056;2022-12-29T01:07:43;0.82;;;0.20;;
49812;SDS011;35706;52.100;5.056;2022-12-29T01:08:43;2.35;;;0.30;;
49812;SDS011;35706;52.100;5.056;2022-12-29T01:09:43;0.95;;;0.20;;
49812;SDS011;35706;52.100;5.056;2022-12-29T01:11:07;1.33;;;0.30;;
49812;SDS011;35706;52.100;5.056;2022-12-29T01:12:09;0.57;;;0.20;;
49812;SDS011;35706;52.100;5.056;2022-12-29T01:13:10;0.88;;;0.22;;
49812;SDS011;35706;52.100;5.056;2022-12-29T01:14:10;1.02;;;0.28;;
49812;SDS011;35706;52.100;5.056;2022-12-29T01:15:11;0.70;;;0.20;;
49812;SDS011;35706;52.100;5.056;2022-12-29T01:16:13;0.88;;;0.22;;
49812;SDS011;35706;52.100;5.056;2022-12-29T01:17:14;2.55;;;0.30;;
49812;SDS011;35706;52.100;5.056;2022-12-29T01:18:14;2.83;;;0.30;;
49812;SDS011;35706;52.100;5.056;2022-12-29T01:19:14;1.33;;;0.25;;
49812;SDS011;35706;52.100;5.056;2022-12-29T01:20:15;0.70;;;0.30;;
49812;SDS011;35706;52.100;5.056;2022-12-29T01:21:16;0.82;;;0.30;;
49812;SDS011;35706;52.100;5.056;2022-12-29T01:22:16;0.70;;;0.20;;
49812;SDS011;35706;52.100;5.056;2022-12-29T01:23:16;0.55;;;0.30;;
49812;SDS011;35706;52.100;5.056;2022-12-29T01:24:17;1.23;;;0.30;;
49812;SDS011;35706;52.100;5.056;2022-12-29T01:25:18;0.93;;;0.40;;
49812;SDS011;35706;52.100;5.056;2022-12-29T01:26:19;0.60;;;0.30;;
49812;SDS011;35706;52.100;5.056;2022-12-29T01:27:19;1.40;;;0.82;;
49812;SDS011;35706;52.100;5.056;2022-12-29T01:28:19;3.00;;;0.40;;
49812;SDS011;35706;52.100;5.056;2022-12-29T01:29:19;0.65;;;0.30;;
49812;SDS011;35706;52.100;5.056;2022-12-29T01:30:20;1.70;;;0.60;;
49812;SDS011;35706;52.100;5.056;2022-12-29T01:31:20;2.10;;;0.30;;
49812;SDS011;35706;52.100;5.056;2022-12-29T01:32:21;1.58;;;0.40;;
49812;SDS011;35706;52.100;5.056;2022-12-29T01:33:21;0.60;;;0.30;;
49812;SDS011;35706;52.100;5.056;2022-12-29T01:34:22;0.77;;;0.40;;
49812;SDS011;35706;52.100;5.056;2022-12-29T01:35:22;2.45;;;0.38;;
49812;SDS011;35706;52.100;5.056;2022-12-29T01:36:23;1.58;;;0.30;;
49812;SDS011;35706;52.100;5.056;2022-12-29T01:37:24;0.80;;;0.30;;
49812;SDS011;35706;52.100;5.056;2022-12-29T01:38:24;1.17;;;0.30;;
49812;SDS011;35706;52.100;5.056;2022-12-29T01:39:24;0.88;;;0.30;;
49812;SDS011;35706;52.100;5.056;2022-12-29T01:40:25;1.27;;;0.32;;
49812;SDS011;35706;52.100;5.056;2022-12-29T01:41:25;0.90;;;0.40;;
49812;SDS011;35706;52.100;5.056;2022-12-29T01:42:26;0.80;;;0.40;;
49812;SDS011;35706;52.100;5.056;2022-12-29T01:43:46;1.67;;;0.35;;
49812;SDS011;35706;52.100;5.056;2022-12-29T01:45:50;0.70;;;0.32;;
49812;SDS011;35706;52.100;5.056;2022-12-29T01:46:53;0.40;;;0.30;;
49812;SDS011;35706;52.100;5.056;2022-12-29T01:47:58;0.70;;;0.30;;
49812;SDS011;35706;52.100;5.056;2022-12-29T01:50:20;1.27;;;0.30;;
49812;SDS011;35706;52.100;5.056;2022-12-29T01:51:23;0.85;;;0.30;;
49812;SDS011;35706;52.100;5.056;2022-12-29T01:52:26;1.73;;;0.35;;
49812;SDS011;35706;52.100;5.056;2022-12-29T01:53:30;2.70;;;0.40;;
49812;SDS011;35706;52.100;5.056;2022-12-29T01:54:35;0.60;;;0.30;;
49812;SDS011;35706;52.100;5.056;2022-12-29T01:55:42;1.58;;;0.30;;
49812;SDS011;35706;52.100;5.056;2022-12-29T01:56:49;0.70;;;0.30;;
49812;SDS011;35706;52.100;5.056;2022-12-29T01:57:51;0.85;;;0.30;;
49812;SDS011;35706;52.100;5.056;2022-12-29T01:58:55;1.55;;;0.30;;
49812;SDS011;35706;52.100;5.056;2022-12-29T02:00:03;0.70;;;0.35;;
49812;SDS011;35706;52.100;5.056;2022-12-29T02:01:07;0.73;;;0.30;;
49812;SDS011;35706;52.100;5.056;2022-12-29T02:02:08;0.50;;;0.22;;
49812;SDS011;35706;52.100;5.056;2022-12-29T02:03:08;0.50;;;0.20;;
49812;SDS011;35706;52.100;5.056;2022-12-29T02:04:10;0.70;;;0.30;;
49812;SDS011;35706;52.100;5.056;2022-12-29T02:05:14;2.83;;;0.30;;
49812;SDS011;35706;52.100;5.056;2022-12-29T02:06:22;2.63;;;0.30;;
49812;SDS011;35706;52.100;5.056;2022-12-29T02:07:25;0.82;;;0.20;;
49812;SDS011;35706;52.100;5.056;2022-12-29T02:08:28;3.45;;;0.30;;
49812;SDS011;35706;52.100;5.056;2022-12-29T02:09:29;1.58;;;0.30;;
49812;SDS011;35706;52.100;5.056;2022-12-29T02:10:30;0.55;;;0.20;;
49812;SDS011;35706;52.100;5.056;2022-12-29T02:11:32;2.03;;;0.30;;
49812;SDS011;35706;52.100;5.056;2022-12-29T02:12:36;1.10;;;0.30;;
49812;SDS011;35706;52.100;5.056;2022-12-29T02:13:37;0.80;;;0.30;;
49812;SDS011;35706;52.100;5.056;2022-12-29T02:14:37;1.13;;;0.30;;
49812;SDS011;35706;52.100;5.056;2022-12-29T02:15:47;0.82;;;0.28;;
49812;SDS011;35706;52.100;5.056;2022-12-29T02:24:03;1.77;;;0.20;;
49812;SDS011;35706;52.100;5.056;2022-12-29T02:31:41;1.67;;;0.20;;
49812;SDS011;35706;52.100;5.056;2022-12-29T02:33:13;0.93;;;0.20;;
49812;SDS011;35706;52.100;5.056;2022-12-29T02:37:23;0.63;;;0.10;;
49812;SDS011;35706;52.100;5.056;2022-12-29T02:39:56;3.03;;;0.13;;
49812;SDS011;35706;52.100;5.056;2022-12-29T02:47:49;2.03;;;0.28;;
49812;SDS011;35706;52.100;5.056;2022-12-29T02:50:21;3.75;;;0.20;;
49812;SDS011;35706;52.100;5.056;2022-12-29T02:51:31;2.05;;;0.10;;
49812;SDS011;35706;52.100;5.056;2022-12-29T02:52:37;0.30;;;0.10;;
49812;SDS011;35706;52.100;5.056;2022-12-29T02:53:43;2.85;;;0.10;;
49812;SDS011;35706;52.100;5.056;2022-12-29T02:55:04;0.45;;;0.10;;
49812;SDS011;35706;52.100;5.056;2022-12-29T02:56:04;1.85;;;0.10;;
49812;SDS011;35706;52.100;5.056;2022-12-29T02:58:22;1.50;;;0.10;;
49812;SDS011;35706;52.100;5.056;2022-12-29T02:59:23;1.08;;;0.10;;
49812;SDS011;35706;52.100;5.056;2022-12-29T03:00:23;0.52;;;0.10;;
49812;SDS011;35706;52.100;5.056;2022-12-29T03:01:29;1.52;;;0.10;;
49812;SDS011;35706;52.100;5.056;2022-12-29T03:04:07;3.00;;;0.10;;
49812;SDS011;35706;52.100;5.056;2022-12-29T03:13:49;2.13;;;0.10;;
49812;SDS011;35706;52.100;5.056;2022-12-29T03:15:12;4.65;;;0.10;;
49812;SDS011;35706;52.100;5.056;2022-12-29T03:16:47;1.15;;;0.13;;
49812;SDS011;35706;52.100;5.056;2022-12-29T03:17:57;1.27;;;0.10;;
49812;SDS011;35706;52.100;5.056;2022-12-29T03:19:04;1.33;;;0.10;;
49812;SDS011;35706;52.100;5.056;2022-12-29T03:21:54;3.90;;;0.10;;
49812;SDS011;35706;52.100;5.056;2022-12-29T03:23:15;1.45;;;0.10;;
49812;SDS011;35706;52.100;5.056;2022-12-29T03:24:19;1.40;;;0.10;;
49812;SDS011;35706;52.100;5.056;2022-12-29T03:25:30;2.83;;;0.10;;
49812;SDS011;35706;52.100;5.056;2022-12-29T03:26:33;3.05;;;0.10;;
49812;SDS011;35706;52.100;5.056;2022-12-29T03:27:38;1.27;;;0.08;;
49812;SDS011;35706;52.100;5.056;2022-12-29T03:28:43;1.77;;;0.20;;
49812;SDS011;35706;52.100;5.056;2022-12-29T03:29:51;1.42;;;0.08;;
49812;SDS011;35706;52.100;5.056;2022-12-29T03:30:57;1.48;;;0.10;;
49812;SDS011;35706;52.100;5.056;2022-12-29T03:31:58;3.03;;;0.10;;
49812;SDS011;35706;52.100;5.056;2022-12-29T03:33:02;2.28;;;0.10;;
49812;SDS011;35706;52.100;5.056;2022-12-29T03:34:05;3.00;;;0.10;;
49812;SDS011;35706;52.100;5.056;2022-12-29T03:35:07;2.13;;;0.10;;
49812;SDS011;35706;52.100;5.056;2022-12-29T03:36:12;0.90;;;0.10;;
49812;SDS011;35706;52.100;5.056;2022-12-29T03:37:21;3.00;;;0.30;;
49812;SDS011;35706;52.100;5.056;2022-12-29T03:38:28;5.53;;;0.10;;
49812;SDS011;35706;52.100;5.056;2022-12-29T03:39:35;1.65;;;0.10;;
49812;SDS011;35706;52.100;5.056;2022-12-29T03:40:36;1.10;;;0.10;;
49812;SDS011;35706;52.100;5.056;2022-12-29T03:41:41;2.05;;;0.10;;
49812;SDS011;35706;52.100;5.056;2022-12-29T03:42:44;2.25;;;0.10;;
49812;SDS011;35706;52.100;5.056;2022-12-29T03:43:46;2.25;;;0.30;;
49812;SDS011;35706;52.100;5.056;2022-12-29T03:44:46;2.58;;;0.10;;
49812;SDS011;35706;52.100;5.056;2022-12-29T03:45:47;2.28;;;0.10;;
49812;SDS011;35706;52.100;5.056;2022-12-29T03:46:47;2.25;;;0.10;;
49812;SDS011;35706;52.100;5.056;2022-12-29T03:47:47;2.72;;;0.10;;
49812;SDS011;35706;52.100;5.056;2022-12-29T03:48:47;5.68;;;0.10;;
49812;SDS011;35706;52.100;5.056;2022-12-29T03:49:48;4.55;;;0.17;;
49812;SDS011;35706;52.100;5.056;2022-12-29T03:50:48;1.90;;;0.10;;
49812;SDS011;35706;52.100;5.056;2022-12-29T03:51:49;1.10;;;0.10;;
49812;SDS011;35706;52.100;5.056;2022-12-29T03:52:49;1.88;;;0.10;;
49812;SDS011;35706;52.100;5.056;2022-12-29T03:53:49;0.95;;;0.10;;
49812;SDS011;35706;52.100;5.056;2022-12-29T03:54:49;1.15;;;0.10;;
49812;SDS011;35706;52.100;5.056;2022-12-29T03:55:50;1.90;;;0.10;;
49812;SDS011;35706;52.100;5.056;2022-12-29T03:56:50;2.05;;;0.10;;
49812;SDS011;35706;52.100;5.056;2022-12-29T03:57:51;2.15;;;0.20;;
49812;SDS011;35706;52.100;5.056;2022-12-29T03:58:51;2.90;;;0.10;;
49812;SDS011;35706;52.100;5.056;2022-12-29T03:59:51;2.38;;;0.20;;
49812;SDS011;35706;52.100;5.056;2022-12-29T04:00:52;1.95;;;0.10;;
49812;SDS011;35706;52.100;5.056;2022-12-29T04:01:52;3.40;;;0.20;;
49812;SDS011;35706;52.100;5.056;2022-12-29T04:02:52;1.73;;;0.15;;
49812;SDS011;35706;52.100;5.056;2022-12-29T04:03:53;0.95;;;0.10;;
49812;SDS011;35706;52.100;5.056;2022-12-29T04:04:53;4.13;;;0.20;;
49812;SDS011;35706;52.100;5.056;2022-12-29T04:05:53;2.28;;;0.15;;
49812;SDS011;35706;52.100;5.056;2022-12-29T04:06:53;1.73;;;0.10;;
49812;SDS011;35706;52.100;5.056;2022-12-29T04:07:54;3.08;;;0.10;;
49812;SDS011;35706;52.100;5.056;2022-12-29T04:08:54;1.85;;;0.10;;
49812;SDS011;35706;52.100;5.056;2022-12-29T04:09:54;1.63;;;0.10;;
49812;SDS011;35706;52.100;5.056;2022-12-29T04:10:55;2.05;;;0.10;;
49812;SDS011;35706;52.100;5.056;2022-12-29T04:11:55;2.92;;;0.17;;
49812;SDS011;35706;52.100;5.056;2022-12-29T04:12:55;1.08;;;0.10;;
49812;SDS011;35706;52.100;5.056;2022-12-29T04:13:55;2.70;;;0.10;;
49812;SDS011;35706;52.100;5.056;2022-12-29T04:14:56;1.83;;;0.20;;
49812;SDS011;35706;52.100;5.056;2022-12-29T04:15:56;3.80;;;0.15;;
49812;SDS011;35706;52.100;5.056;2022-12-29T04:16:56;4.10;;;0.17;;
49812;SDS011;35706;52.100;5.056;2022-12-29T04:17:56;2.05;;;0.17;;
49812;SDS011;35706;52.100;5.056;2022-12-29T04:18:57;4.85;;;0.20;;
49812;SDS011;35706;52.100;5.056;2022-12-29T04:19:57;2.30;;;0.20;;
49812;SDS011;35706;52.100;5.056;2022-12-29T04:21:17;1.08;;;0.10;;
49812;SDS011;35706;52.100;5.056;2022-12-29T04:22:18;1.30;;;0.20;;
49812;SDS011;35706;52.100;5.056;2022-12-29T04:23:18;4.80;;;0.20;;
49812;SDS011;35706;52.100;5.056;2022-12-29T04:24:18;3.60;;;0.20;;
49812;SDS011;35706;52.100;5.056;2022-12-29T04:25:19;3.22;;;0.28;;
49812;SDS011;35706;52.100;5.056;2022-12-29T04:26:19;4.10;;;0.20;;
49812;SDS011;35706;52.100;5.056;2022-12-29T04:27:19;2.15;;;0.10;;
49812;SDS011;35706;52.100;5.056;2022-12-29T04:28:19;3.58;;;0.10;;
49812;SDS011;35706;52.100;5.056;2022-12-29T04:29:20;2.25;;;0.15;;
49812;SDS011;35706;52.100;5.056;2022-12-29T04:30:20;8.13;;;0.30;;
49812;SDS011;35706;52.100;5.056;2022-12-29T04:31:20;4.90;;;0.20;;
49812;SDS011;35706;52.100;5.056;2022-12-29T04:32:21;2.05;;;0.20;;
49812;SDS011;35706;52.100;5.056;2022-12-29T04:33:21;2.58;;;0.30;;
49812;SDS011;35706;52.100;5.056;2022-12-29T04:34:22;3.58;;;0.20;;
49812;SDS011;35706;52.100;5.056;2022-12-29T04:35:22;2.83;;;0.20;;
49812;SDS011;35706;52.100;5.056;2022-12-29T04:36:23;7.43;;;0.28;;
49812;SDS011;35706;52.100;5.056;2022-12-29T04:37:23;4.53;;;0.40;;
49812;SDS011;35706;52.100;5.056;2022-12-29T04:38:23;5.25;;;0.20;;
49812;SDS011;35706;52.100;5.056;2022-12-29T04:39:24;3.97;;;0.10;;
49812;SDS011;35706;52.100;5.056;2022-12-29T04:40:24;4.20;;;0.10;;
49812;SDS011;35706;52.100;5.056;2022-12-29T04:41:25;2.30;;;0.20;;
49812;SDS011;35706;52.100;5.056;2022-12-29T04:42:25;4.22;;;0.20;;
49812;SDS011;35706;52.100;5.056;2022-12-29T04:43:25;2.30;;;0.20;;
49812;SDS011;35706;52.100;5.056;2022-12-29T04:44:26;3.92;;;0.20;;
49812;SDS011;35706;52.100;5.056;2022-12-29T04:45:26;3.30;;;0.20;;
49812;SDS011;35706;52.100;5.056;2022-12-29T04:46:27;4.07;;;0.20;;
49812;SDS011;35706;52.100;5.056;2022-12-29T04:47:27;5.60;;;0.20;;
49812;SDS011;35706;52.100;5.056;2022-12-29T04:48:27;4.80;;;0.40;;
49812;SDS011;35706;52.100;5.056;2022-12-29T04:49:27;5.85;;;0.30;;
49812;SDS011;35706;52.100;5.056;2022-12-29T04:50:28;5.97;;;0.40;;
49812;SDS011;35706;52.100;5.056;2022-12-29T04:51:28;4.75;;;0.20;;
49812;SDS011;35706;52.100;5.056;2022-12-29T04:52:28;5.28;;;0.20;;
49812;SDS011;35706;52.100;5.056;2022-12-29T04:53:29;5.90;;;0.20;;
49812;SDS011;35706;52.100;5.056;2022-12-29T04:54:29;1.65;;;0.20;;
49812;SDS011;35706;52.100;5.056;2022-12-29T04:55:29;4.05;;;0.30;;
49812;SDS011;35706;52.100;5.056;2022-12-29T04:56:30;3.90;;;0.28;;
49812;SDS011;35706;52.100;5.056;2022-12-29T04:57:30;5.63;;;0.22;;
49812;SDS011;35706;52.100;5.056;2022-12-29T04:58:30;4.78;;;0.20;;
49812;SDS011;35706;52.100;5.056;2022-12-29T04:59:31;3.67;;;0.30;;
49812;SDS011;35706;52.100;5.056;2022-12-29T05:00:31;10.30;;;0.50;;
49812;SDS011;35706;52.100;5.056;2022-12-29T05:01:31;5.72;;;0.30;;
49812;SDS011;35706;52.100;5.056;2022-12-29T05:02:32;5.28;;;0.25;;
49812;SDS011;35706;52.100;5.056;2022-12-29T05:03:32;2.17;;;0.28;;
49812;SDS011;35706;52.100;5.056;2022-12-29T05:04:32;7.20;;;0.20;;
49812;SDS011;35706;52.100;5.056;2022-12-29T05:05:33;7.22;;;0.30;;
49812;SDS011;35706;52.100;5.056;2022-12-29T05:06:33;4.22;;;0.20;;
49812;SDS011;35706;52.100;5.056;2022-12-29T05:07:33;5.68;;;0.20;;
49812;SDS011;35706;52.100;5.056;2022-12-29T05:08:34;6.35;;;0.30;;
49812;SDS011;35706;52.100;5.056;2022-12-29T05:09:34;5.07;;;0.30;;
49812;SDS011;35706;52.100;5.056;2022-12-29T05:10:34;9.45;;;0.40;;
49812;SDS011;35706;52.100;5.056;2022-12-29T05:11:35;3.83;;;0.20;;
49812;SDS011;35706;52.100;5.056;2022-12-29T05:12:35;7.93;;;0.50;;
49812;SDS011;35706;52.100;5.056;2022-12-29T05:13:37;10.52;;;0.70;;
49812;SDS011;35706;52.100;5.056;2022-12-29T05:14:37;9.57;;;0.30;;
49812;SDS011;35706;52.100;5.056;2022-12-29T05:15:37;5.03;;;0.30;;
49812;SDS011;35706;52.100;5.056;2022-12-29T05:16:38;5.93;;;0.30;;
49812;SDS011;35706;52.100;5.056;2022-12-29T05:17:38;11.40;;;0.38;;
49812;SDS011;35706;52.100;5.056;2022-12-29T05:18:38;6.32;;;0.20;;
49812;SDS011;35706;52.100;5.056;2022-12-29T05:19:38;8.25;;;0.30;;
49812;SDS011;35706;52.100;5.056;2022-12-29T05:20:39;6.60;;;0.20;;
49812;SDS011;35706;52.100;5.056;2022-12-29T05:21:39;3.72;;;0.20;;
49812;SDS011;35706;52.100;5.056;2022-12-29T05:22:39;4.32;;;0.35;;
49812;SDS011;35706;52.100;5.056;2022-12-29T05:23:40;8.60;;;0.30;;
49812;SDS011;35706;52.100;5.056;2022-12-29T05:24:40;8.75;;;0.40;;
49812;SDS011;35706;52.100;5.056;2022-12-29T05:25:40;6.75;;;0.28;;
49812;SDS011;35706;52.100;5.056;2022-12-29T05:26:41;11.07;;;0.30;;
49812;SDS011;35706;52.100;5.056;2022-12-29T05:27:41;9.15;;;0.30;;
49812;SDS011;35706;52.100;5.056;2022-12-29T05:28:42;5.28;;;0.30;;
49812;SDS011;35706;52.100;5.056;2022-12-29T05:29:42;9.80;;;0.32;;
49812;SDS011;35706;52.100;5.056;2022-12-29T05:30:42;3.75;;;0.20;;
49812;SDS011;35706;52.100;5.056;2022-12-29T05:31:42;7.32;;;0.30;;
49812;SDS011;35706;52.100;5.056;2022-12-29T05:32:43;5.55;;;0.30;;
49812;SDS011;35706;52.100;5.056;2022-12-29T05:33:43;3.35;;;0.20;;
49812;SDS011;35706;52.100;5.056;2022-12-29T05:34:43;5.30;;;0.30;;
49812;SDS011;35706;52.100;5.056;2022-12-29T05:35:44;8.45;;;0.30;;
49812;SDS011;35706;52.100;5.056;2022-12-29T05:36:44;10.10;;;0.60;;
49812;SDS011;35706;52.100;5.056;2022-12-29T05:37:44;5.40;;;0.30;;
49812;SDS011;35706;52.100;5.056;2022-12-29T05:38:45;5.80;;;0.30;;
49812;SDS011;35706;52.100;5.056;2022-12-29T05:39:45;6.90;;;0.47;;
49812;SDS011;35706;52.100;5.056;2022-12-29T05:40:45;8.65;;;0.50;;
49812;SDS011;35706;52.100;5.056;2022-12-29T05:41:46;7.50;;;0.30;;
49812;SDS011;35706;52.100;5.056;2022-12-29T05:42:46;7.55;;;0.30;;
49812;SDS011;35706;52.100;5.056;2022-12-29T05:43:46;9.30;;;0.30;;
49812;SDS011;35706;52.100;5.056;2022-12-29T05:44:46;12.07;;;0.40;;
49812;SDS011;35706;52.100;5.056;2022-12-29T05:45:49;6.40;;;0.57;;
49812;SDS011;35706;52.100;5.056;2022-12-29T05:46:50;10.23;;;0.30;;
49812;SDS011;35706;52.100;5.056;2022-12-29T05:47:50;5.38;;;0.22;;
49812;SDS011;35706;52.100;5.056;2022-12-29T05:48:50;3.80;;;0.30;;
49812;SDS011;35706;52.100;5.056;2022-12-29T05:49:51;12.40;;;0.60;;
49812;SDS011;35706;52.100;5.056;2022-12-29T05:50:51;10.85;;;0.40;;
49812;SDS011;35706;52.100;5.056;2022-12-29T05:51:52;7.72;;;0.47;;
49812;SDS011;35706;52.100;5.056;2022-12-29T05:52:52;14.18;;;0.50;;
49812;SDS011;35706;52.100;5.056;2022-12-29T05:53:52;8.15;;;0.30;;
49812;SDS011;35706;52.100;5.056;2022-12-29T05:54:53;7.05;;;0.35;;
49812;SDS011;35706;52.100;5.056;2022-12-29T05:55:53;7.82;;;0.30;;
49812;SDS011;35706;52.100;5.056;2022-12-29T05:56:53;8.68;;;0.30;;
49812;SDS011;35706;52.100;5.056;2022-12-29T05:57:53;7.90;;;0.40;;
49812;SDS011;35706;52.100;5.056;2022-12-29T05:58:54;6.15;;;0.40;;
49812;SDS011;35706;52.100;5.056;2022-12-29T05:59:54;8.23;;;0.30;;
49812;SDS011;35706;52.100;5.056;2022-12-29T06:00:54;10.75;;;0.30;;
49812;SDS011;35706;52.100;5.056;2022-12-29T06:01:55;10.10;;;0.40;;
49812;SDS011;35706;52.100;5.056;2022-12-29T06:02:55;5.40;;;0.30;;
49812;SDS011;35706;52.100;5.056;2022-12-29T06:03:55;10.85;;;0.30;;
49812;SDS011;35706;52.100;5.056;2022-12-29T06:04:55;5.72;;;0.30;;
49812;SDS011;35706;52.100;5.056;2022-12-29T06:05:56;15.68;;;0.40;;
49812;SDS011;35706;52.100;5.056;2022-12-29T06:06:56;8.93;;;0.40;;
49812;SDS011;35706;52.100;5.056;2022-12-29T06:07:56;7.93;;;0.30;;
49812;SDS011;35706;52.100;5.056;2022-12-29T06:08:57;10.48;;;0.40;;
49812;SDS011;35706;52.100;5.056;2022-12-29T06:09:57;6.07;;;0.40;;
49812;SDS011;35706;52.100;5.056;2022-12-29T06:10:57;11.55;;;0.57;;
49812;SDS011;35706;52.100;5.056;2022-12-29T06:11:58;6.05;;;0.50;;
49812;SDS011;35706;52.100;5.056;2022-12-29T06:12:58;7.50;;;0.52;;
49812;SDS011;35706;52.100;5.056;2022-12-29T06:13:58;7.38;;;0.40;;
49812;SDS011;35706;52.100;5.056;2022-12-29T06:14:58;9.40;;;0.30;;
49812;SDS011;35706;52.100;5.056;2022-12-29T06:15:59;13.60;;;0.32;;
49812;SDS011;35706;52.100;5.056;2022-12-29T06:16:59;11.13;;;0.45;;
49812;SDS011;35706;52.100;5.056;2022-12-29T06:17:59;11.32;;;0.30;;
49812;SDS011;35706;52.100;5.056;2022-12-29T06:19:00;6.50;;;0.40;;
49812;SDS011;35706;52.100;5.056;2022-12-29T06:20:00;9.55;;;0.30;;
49812;SDS011;35706;52.100;5.056;2022-12-29T06:21:02;9.63;;;0.40;;
49812;SDS011;35706;52.100;5.056;2022-12-29T06:22:03;11.45;;;0.50;;
49812;SDS011;35706;52.100;5.056;2022-12-29T06:23:04;11.60;;;0.40;;
49812;SDS011;35706;52.100;5.056;2022-12-29T06:24:05;9.98;;;0.40;;
49812;SDS011;35706;52.100;5.056;2022-12-29T06:25:05;8.00;;;0.40;;
49812;SDS011;35706;52.100;5.056;2022-12-29T06:26:06;11.05;;;0.40;;
49812;SDS011;35706;52.100;5.056;2022-12-29T06:27:06;11.38;;;0.30;;
49812;SDS011;35706;52.100;5.056;2022-12-29T06:28:07;12.45;;;0.70;;
49812;SDS011;35706;52.100;5.056;2022-12-29T06:29:07;9.93;;;0.40;;
49812;SDS011;35706;52.100;5.056;2022-12-29T06:30:08;3.13;;;0.28;;
49812;SDS011;35706;52.100;5.056;2022-12-29T06:31:09;12.27;;;0.40;;
49812;SDS011;35706;52.100;5.056;2022-12-29T06:32:10;6.38;;;0.40;;
49812;SDS011;35706;52.100;5.056;2022-12-29T06:33:11;10.32;;;0.30;;
49812;SDS011;35706;52.100;5.056;2022-12-29T06:34:12;8.77;;;0.40;;
49812;SDS011;35706;52.100;5.056;2022-12-29T06:35:13;9.35;;;0.32;;
49812;SDS011;35706;52.100;5.056;2022-12-29T06:36:13;10.63;;;0.40;;
49812;SDS011;35706;52.100;5.056;2022-12-29T06:37:13;8.27;;;0.30;;
49812;SDS011;35706;52.100;5.056;2022-12-29T06:38:14;10.98;;;0.40;;
49812;SDS011;35706;52.100;5.056;2022-12-29T06:39:15;14.48;;;0.45;;
49812;SDS011;35706;52.100;5.056;2022-12-29T06:40:15;13.18;;;0.40;;
49812;SDS011;35706;52.100;5.056;2022-12-29T06:41:15;11.68;;;0.30;;
49812;SDS011;35706;52.100;5.056;2022-12-29T06:42:16;9.60;;;0.40;;
49812;SDS011;35706;52.100;5.056;2022-12-29T06:43:16;10.00;;;0.68;;
49812;SDS011;35706;52.100;5.056;2022-12-29T06:44:16;9.40;;;0.32;;
49812;SDS011;35706;52.100;5.056;2022-12-29T06:45:17;8.55;;;0.50;;
49812;SDS011;35706;52.100;5.056;2022-12-29T06:46:17;15.57;;;0.38;;
49812;SDS011;35706;52.100;5.056;2022-12-29T06:47:17;11.18;;;0.40;;
49812;SDS011;35706;52.100;5.056;2022-12-29T06:48:18;9.25;;;0.40;;
49812;SDS011;35706;52.100;5.056;2022-12-29T06:49:19;12.65;;;0.28;;
49812;SDS011;35706;52.100;5.056;2022-12-29T06:50:20;6.93;;;0.75;;
49812;SDS011;35706;52.100;5.056;2022-12-29T06:51:20;11.20;;;0.35;;
49812;SDS011;35706;52.100;5.056;2022-12-29T06:52:20;15.32;;;0.50;;
49812;SDS011;35706;52.100;5.056;2022-12-29T06:53:21;5.55;;;0.40;;
49812;SDS011;35706;52.100;5.056;2022-12-29T06:54:21;6.70;;;0.30;;
49812;SDS011;35706;52.100;5.056;2022-12-29T06:55:21;16.40;;;0.50;;
49812;SDS011;35706;52.100;5.056;2022-12-29T06:56:22;6.57;;;0.40;;
49812;SDS011;35706;52.100;5.056;2022-12-29T06:57:22;9.70;;;0.30;;
49812;SDS011;35706;52.100;5.056;2022-12-29T06:58:23;9.80;;;0.30;;
49812;SDS011;35706;52.100;5.056;2022-12-29T06:59:23;8.50;;;0.38;;
49812;SDS011;35706;52.100;5.056;2022-12-29T07:00:24;12.65;;;0.30;;